createdAt,value
2023-03-03T00:00:09.992Z,99661.38
2023-03-03T00:01:15.888Z,99661.34
2023-03-03T00:02:18.117Z,99661.31
2023-03-03T00:03:23.468Z,99655.31
2023-03-03T00:04:25.789Z,99660.50
2023-03-03T00:05:28.046Z,99662.22
2023-03-03T00:06:30.555Z,99662.16
2023-03-03T00:07:32.879Z,99665.59
2023-03-03T00:08:35.016Z,99656.09
2023-03-03T00:09:37.314Z,99656.91
2023-03-03T00:10:39.788Z,99668.97
2023-03-03T00:11:42.043Z,99662.94
2023-03-03T00:12:49.183Z,99674.13
2023-03-03T00:13:53.818Z,99665.56
2023-03-03T00:14:56.560Z,99663.78
2023-03-03T00:16:26.499Z,99668.13
2023-03-03T00:17:32.786Z,99657.81
2023-03-03T00:18:42.736Z,99665.59
2023-03-03T00:19:47.322Z,99665.53
2023-03-03T00:20:53.570Z,99668.09
2023-03-03T00:21:58.218Z,99661.19
2023-03-03T00:23:25.275Z,99668.97
2023-03-03T00:24:38.228Z,99667.25
2023-03-03T00:25:43.849Z,99662.84
2023-03-03T00:26:57.048Z,99666.31
2023-03-03T00:28:16.147Z,99670.53
2023-03-03T00:29:35.996Z,99675.75
2023-03-03T00:30:38.211Z,99664.50
2023-03-03T00:31:40.470Z,99673.13
2023-03-03T00:32:47.170Z,99673.91
2023-03-03T00:33:57.313Z,99671.34
2023-03-03T00:35:18.770Z,99680.78
2023-03-03T00:36:28.811Z,99677.41
2023-03-03T00:37:35.385Z,99682.56
2023-03-03T00:38:37.655Z,99679.19
2023-03-03T00:39:39.996Z,99677.50
2023-03-03T00:40:42.452Z,99674.06
2023-03-03T00:41:44.883Z,99673.22
2023-03-03T00:42:51.281Z,99670.63
2023-03-03T00:43:54.306Z,99674.91
2023-03-03T00:45:00.753Z,99674.91
2023-03-03T00:46:03.496Z,99676.59
2023-03-03T00:47:23.186Z,99671.44
2023-03-03T00:48:36.176Z,99683.47
2023-03-03T00:49:39.708Z,99673.16
2023-03-03T00:50:43.968Z,99668.81
2023-03-03T00:51:46.157Z,99668.84
2023-03-03T00:53:01.604Z,99674.00
2023-03-03T00:54:04.258Z,99682.50
2023-03-03T00:55:07.871Z,99679.03
2023-03-03T00:56:10.104Z,99675.63
2023-03-03T00:57:15.381Z,99680.81
2023-03-03T00:58:21.674Z,99687.66
2023-03-03T00:59:24.917Z,99677.41
2023-03-03T01:00:27.270Z,99676.56
2023-03-03T01:01:29.520Z,99677.38
2023-03-03T01:02:31.795Z,99657.50
2023-03-03T01:03:34.019Z,99670.47
2023-03-03T01:04:36.358Z,99673.09
2023-03-03T01:05:38.817Z,99671.38
2023-03-03T01:06:40.977Z,99673.03
2023-03-03T01:07:43.311Z,99675.56
2023-03-03T01:08:45.827Z,99671.31
2023-03-03T01:09:48.744Z,99662.75
2023-03-03T01:10:57.625Z,99669.69
2023-03-03T01:12:00.187Z,99674.84
2023-03-03T01:13:03.585Z,99672.31
2023-03-03T01:14:06.036Z,99676.59
2023-03-03T01:15:11.109Z,99663.72
2023-03-03T01:16:14.046Z,99674.94
2023-03-03T01:17:16.388Z,99674.97
2023-03-03T01:18:18.877Z,99664.69
2023-03-03T01:19:21.127Z,99668.13
2023-03-03T01:20:23.702Z,99672.41
2023-03-03T01:21:25.964Z,99675.03
2023-03-03T01:22:28.364Z,99673.28
2023-03-03T01:23:30.592Z,99678.41
2023-03-03T01:24:33.429Z,99671.53
2023-03-03T01:25:35.958Z,99668.91
2023-03-03T01:26:38.518Z,99672.34
2023-03-03T01:27:40.787Z,99678.41
2023-03-03T01:28:43.010Z,99669.81
2023-03-03T01:29:45.602Z,99667.22
2023-03-03T01:30:47.911Z,99669.78
2023-03-03T01:31:50.151Z,99671.47
2023-03-03T01:32:52.751Z,99667.16
2023-03-03T01:33:54.915Z,99668.06
2023-03-03T01:34:57.357Z,99658.59
2023-03-03T01:35:59.673Z,99661.13
2023-03-03T01:37:01.988Z,99661.97
2023-03-03T01:38:04.230Z,99659.41
2023-03-03T01:39:06.383Z,99674.00
2023-03-03T01:40:21.341Z,99664.50
2023-03-03T01:41:23.562Z,99667.09
2023-03-03T01:42:29.144Z,99673.03
2023-03-03T01:43:33.075Z,99667.00
2023-03-03T01:44:35.332Z,99668.63
2023-03-03T01:45:49.929Z,99669.44
2023-03-03T01:47:11.073Z,99666.75
2023-03-03T01:48:20.870Z,99664.09
2023-03-03T01:49:28.818Z,99653.84
2023-03-03T01:50:31.047Z,99659.91
2023-03-03T01:51:37.315Z,99656.47
2023-03-03T01:52:43.250Z,99656.44
2023-03-03T01:53:53.368Z,99655.56
2023-03-03T01:55:00.310Z,99662.38
2023-03-03T01:56:05.656Z,99656.31
2023-03-03T01:57:14.856Z,99653.69
2023-03-03T01:58:23.126Z,99655.47
2023-03-03T01:59:31.756Z,99662.31
2023-03-03T02:02:18.680Z,99654.59
2023-03-03T02:03:23.453Z,99651.97
2023-03-03T02:04:26.981Z,99655.44
2023-03-03T02:05:29.817Z,99661.41
2023-03-03T02:06:38.217Z,99654.59
2023-03-03T02:07:40.699Z,99653.69
2023-03-03T02:08:53.601Z,99657.88
2023-03-03T02:10:12.340Z,99659.59
2023-03-03T02:11:16.094Z,99657.84
2023-03-03T02:12:20.090Z,99652.75
2023-03-03T02:13:22.366Z,99650.16
2023-03-03T02:14:25.535Z,99658.88
2023-03-03T02:15:38.061Z,99652.91
2023-03-03T02:16:40.670Z,99652.13
2023-03-03T02:17:43.146Z,99656.44
2023-03-03T02:18:45.780Z,99654.78
2023-03-03T02:19:58.075Z,99653.97
2023-03-03T02:21:15.349Z,99662.56
2023-03-03T02:22:24.745Z,99653.13
2023-03-03T02:23:32.800Z,99653.13
2023-03-03T02:24:43.165Z,99656.59
2023-03-03T02:25:58.972Z,99656.59
2023-03-03T02:27:03.923Z,99654.84
2023-03-03T02:28:06.450Z,99646.25
2023-03-03T02:29:10.114Z,99657.44
2023-03-03T02:30:18.184Z,99657.44
2023-03-03T02:31:25.259Z,99652.31
2023-03-03T02:32:27.515Z,99649.69
2023-03-03T02:33:29.822Z,99654.03
2023-03-03T02:34:43.444Z,99658.31
2023-03-03T02:35:45.931Z,99659.16
2023-03-03T02:36:48.252Z,99658.31
2023-03-03T02:37:53.573Z,99663.44
2023-03-03T02:39:05.925Z,99660.03
2023-03-03T02:40:10.082Z,99664.31
2023-03-03T02:41:38.561Z,99660.81
2023-03-03T02:42:44.374Z,99663.34
2023-03-03T02:44:01.802Z,99659.88
2023-03-03T02:45:05.702Z,99659.03
2023-03-03T02:46:08.029Z,99661.59
2023-03-03T02:47:11.364Z,99665.91
2023-03-03T02:48:14.875Z,99671.94
2023-03-03T02:49:20.216Z,99660.75
2023-03-03T02:50:22.469Z,99670.13
2023-03-03T02:51:24.698Z,99669.16
2023-03-03T02:52:26.872Z,99663.06
2023-03-03T02:53:29.102Z,99660.47
2023-03-03T02:54:31.943Z,99668.16
2023-03-03T02:55:35.558Z,99663.81
2023-03-03T02:56:38.054Z,99665.41
2023-03-03T02:57:40.307Z,99663.63
2023-03-03T02:58:42.486Z,99668.78
2023-03-03T02:59:44.959Z,99671.31
2023-03-03T03:00:49.909Z,99668.81
2023-03-03T03:01:55.274Z,99667.94
2023-03-03T03:02:59.016Z,99667.06
2023-03-03T03:04:01.320Z,99664.44
2023-03-03T03:05:04.320Z,99667.75
2023-03-03T03:06:06.951Z,99665.13
2023-03-03T03:07:11.858Z,99667.78
2023-03-03T03:08:14.276Z,99663.41
2023-03-03T03:09:17.658Z,99663.44
2023-03-03T03:10:20.679Z,99663.34
2023-03-03T03:11:30.078Z,99663.44
2023-03-03T03:12:48.146Z,99678.97
2023-03-03T03:13:51.869Z,99670.38
2023-03-03T03:14:54.639Z,99679.09
2023-03-03T03:15:56.874Z,99670.66
2023-03-03T03:16:59.232Z,99672.38
2023-03-03T03:18:03.319Z,99674.88
2023-03-03T03:19:07.093Z,99671.47
2023-03-03T03:20:11.303Z,99670.44
2023-03-03T03:21:14.256Z,99670.34
2023-03-03T03:22:19.443Z,99665.88
2023-03-03T03:23:24.643Z,99670.25
2023-03-03T03:24:26.873Z,99666.88
2023-03-03T03:25:34.067Z,99666.03
2023-03-03T03:26:36.401Z,99671.00
2023-03-03T03:27:39.033Z,99672.72
2023-03-03T03:28:41.684Z,99683.00
2023-03-03T03:29:43.892Z,99672.59
2023-03-03T03:30:46.948Z,99669.16
2023-03-03T03:31:49.427Z,99680.25
2023-03-03T03:32:51.735Z,99680.22
2023-03-03T03:33:54.593Z,99681.91
2023-03-03T03:34:57.485Z,99681.94
2023-03-03T03:35:59.882Z,99680.25
2023-03-03T03:37:02.376Z,99687.84
2023-03-03T03:38:04.791Z,99683.53
2023-03-03T03:39:07.220Z,99677.56
2023-03-03T03:40:12.880Z,99676.63
2023-03-03T03:41:15.090Z,99677.53
2023-03-03T03:42:18.110Z,99682.00
2023-03-03T03:43:20.983Z,99683.78
2023-03-03T03:44:25.089Z,99670.09
2023-03-03T03:45:27.640Z,99675.28
2023-03-03T03:46:29.921Z,99684.59
2023-03-03T03:47:32.132Z,99682.91
2023-03-03T03:48:35.677Z,99678.56
2023-03-03T03:49:39.639Z,99675.16
2023-03-03T03:50:41.918Z,99682.16
2023-03-03T03:51:44.723Z,99683.97
2023-03-03T03:52:51.241Z,99681.41
2023-03-03T03:53:53.750Z,99680.50
2023-03-03T03:54:56.051Z,99681.47
2023-03-03T03:55:58.408Z,99686.69
2023-03-03T03:57:00.788Z,99675.56
2023-03-03T03:58:04.143Z,99682.53
2023-03-03T03:59:08.101Z,99682.59
2023-03-03T04:00:11.979Z,99686.06
2023-03-03T04:01:18.837Z,99686.94
2023-03-03T04:02:24.147Z,99688.69
2023-03-03T04:03:27.156Z,99686.13
2023-03-03T04:04:29.692Z,99678.41
2023-03-03T04:05:32.584Z,99686.19
2023-03-03T04:06:35.003Z,99684.47
2023-03-03T04:07:37.480Z,99680.16
2023-03-03T04:08:39.703Z,99676.69
2023-03-03T04:09:43.812Z,99688.69
2023-03-03T04:10:46.137Z,99687.78
2023-03-03T04:11:48.558Z,99685.06
2023-03-03T04:12:51.178Z,99683.41
2023-03-03T04:13:53.516Z,99682.59
2023-03-03T04:14:55.998Z,99690.34
2023-03-03T04:15:58.311Z,99692.09
2023-03-03T04:17:00.842Z,99691.25
2023-03-03T04:18:03.556Z,99692.91
2023-03-03T04:19:06.377Z,99684.34
2023-03-03T04:20:13.928Z,99686.06
2023-03-03T04:21:16.499Z,99687.81
2023-03-03T04:22:21.113Z,99692.91
2023-03-03T04:23:23.420Z,99689.50
2023-03-03T04:24:25.911Z,99697.22
2023-03-03T04:25:28.340Z,99692.91
2023-03-03T04:26:31.592Z,99708.34
2023-03-03T04:27:36.513Z,99700.59
2023-03-03T04:28:39.449Z,99704.00
2023-03-03T04:29:42.744Z,99694.53
2023-03-03T04:30:45.896Z,99697.03
2023-03-03T04:31:50.621Z,99696.22
2023-03-03T04:32:53.757Z,99695.34
2023-03-03T04:33:58.811Z,99693.56
2023-03-03T04:35:08.124Z,99697.78
2023-03-03T04:36:13.207Z,99695.03
2023-03-03T04:37:16.160Z,99692.44
2023-03-03T04:38:19.063Z,99700.03
2023-03-03T04:39:22.765Z,99698.06
2023-03-03T04:40:25.219Z,99702.25
2023-03-03T04:41:27.668Z,99705.53
2023-03-03T04:42:30.067Z,99701.16
2023-03-03T04:43:32.345Z,99699.69
2023-03-03T04:44:35.957Z,99700.53
2023-03-03T04:45:38.212Z,99700.56
2023-03-03T04:46:40.816Z,99703.19
2023-03-03T04:47:43.095Z,99705.59
2023-03-03T04:48:45.400Z,99707.22
2023-03-03T04:49:47.688Z,99705.34
2023-03-03T04:50:50.109Z,99698.72
2023-03-03T04:51:52.456Z,99706.53
2023-03-03T04:52:54.712Z,99705.59
2023-03-03T04:53:57.060Z,99705.66
2023-03-03T04:54:59.455Z,99696.25
2023-03-03T04:56:02.324Z,99703.16
2023-03-03T04:57:04.567Z,99695.59
2023-03-03T04:58:10.184Z,99694.81
2023-03-03T04:59:12.456Z,99695.66
2023-03-03T05:00:15.159Z,99695.47
2023-03-03T05:01:19.352Z,99701.44
2023-03-03T05:02:21.637Z,99687.78
2023-03-03T05:03:24.953Z,99695.34
2023-03-03T05:04:27.189Z,99691.84
2023-03-03T05:05:29.493Z,99694.56
2023-03-03T05:06:31.712Z,99694.78
2023-03-03T05:07:33.910Z,99698.31
2023-03-03T05:08:36.161Z,99691.50
2023-03-03T05:09:38.392Z,99694.09
2023-03-03T05:10:40.921Z,99700.94
2023-03-03T05:11:43.209Z,99701.63
2023-03-03T05:12:45.540Z,99693.88
2023-03-03T05:13:47.738Z,99707.66
2023-03-03T05:14:49.986Z,99707.63
2023-03-03T05:15:55.216Z,99699.22
2023-03-03T05:16:57.690Z,99712.38
2023-03-03T05:17:59.984Z,99706.50
2023-03-03T05:19:02.251Z,99713.63
2023-03-03T05:20:05.691Z,99709.41
2023-03-03T05:21:07.934Z,99709.47
2023-03-03T05:22:10.405Z,99711.28
2023-03-03T05:23:12.624Z,99699.22
2023-03-03T05:24:15.115Z,99713.88
2023-03-03T05:25:17.641Z,99707.91
2023-03-03T05:26:20.292Z,99705.34
2023-03-03T05:27:22.534Z,99707.16
2023-03-03T05:28:24.843Z,99707.19
2023-03-03T05:29:28.508Z,99708.97
2023-03-03T05:30:30.756Z,99714.13
2023-03-03T05:31:33.516Z,99712.44
2023-03-03T05:32:36.203Z,99713.38
2023-03-03T05:33:38.520Z,99717.66
2023-03-03T05:34:40.817Z,99711.63
2023-03-03T05:35:43.451Z,99715.03
2023-03-03T05:36:45.770Z,99721.94
2023-03-03T05:37:49.680Z,99713.41
2023-03-03T05:38:52.127Z,99704.78
2023-03-03T05:39:54.339Z,99719.41
2023-03-03T05:40:56.540Z,99722.06
2023-03-03T05:42:00.205Z,99718.63
2023-03-03T05:43:02.519Z,99713.56
2023-03-03T05:44:04.832Z,99718.66
2023-03-03T05:45:07.732Z,99713.47
2023-03-03T05:46:10.761Z,99716.00
2023-03-03T05:47:13.485Z,99717.75
2023-03-03T05:48:16.096Z,99722.06
2023-03-03T05:49:18.628Z,99716.88
2023-03-03T05:50:22.882Z,99721.09
2023-03-03T05:51:25.339Z,99730.47
2023-03-03T05:52:27.638Z,99732.31
2023-03-03T05:53:30.468Z,99729.84
2023-03-03T05:54:32.777Z,99732.44
2023-03-03T05:55:35.006Z,99725.59
2023-03-03T05:56:37.246Z,99735.03
2023-03-03T05:57:39.573Z,99734.13
2023-03-03T05:58:41.945Z,99734.09
2023-03-03T05:59:44.180Z,99733.31
2023-03-03T06:00:46.840Z,99734.25
2023-03-03T06:01:49.063Z,99741.94
2023-03-03T06:02:51.762Z,99734.94
2023-03-03T06:03:54.067Z,99733.09
2023-03-03T06:04:56.370Z,99736.59
2023-03-03T06:05:58.751Z,99732.34
2023-03-03T06:07:01.266Z,99734.91
2023-03-03T06:08:03.672Z,99737.50
2023-03-03T06:09:06.236Z,99740.97
2023-03-03T06:10:10.527Z,99742.63
2023-03-03T06:11:16.761Z,99740.88
2023-03-03T06:12:19.105Z,99738.31
2023-03-03T06:13:21.842Z,99732.34
2023-03-03T06:14:26.995Z,99740.88
2023-03-03T06:15:29.503Z,99737.41
2023-03-03T06:16:31.891Z,99750.31
2023-03-03T06:17:34.436Z,99752.91
2023-03-03T06:18:36.878Z,99753.78
2023-03-03T06:19:41.352Z,99752.06
2023-03-03T06:20:43.642Z,99757.22
2023-03-03T06:21:45.944Z,99751.16
2023-03-03T06:22:48.178Z,99754.59
2023-03-03T06:23:50.699Z,99763.22
2023-03-03T06:24:52.997Z,99757.22
2023-03-03T06:25:55.221Z,99755.56
2023-03-03T06:26:58.508Z,99759.03
2023-03-03T06:28:00.764Z,99761.66
2023-03-03T06:29:03.000Z,99760.88
2023-03-03T06:30:05.930Z,99764.34
2023-03-03T06:31:08.209Z,99762.63
2023-03-03T06:32:11.246Z,99768.63
2023-03-03T06:33:13.499Z,99768.63
2023-03-03T06:34:15.932Z,99766.91
2023-03-03T06:35:18.373Z,99768.66
2023-03-03T06:36:22.017Z,99760.94
2023-03-03T06:37:24.298Z,99764.34
2023-03-03T06:38:26.657Z,99769.44
2023-03-03T06:39:29.183Z,99774.66
2023-03-03T06:40:31.482Z,99765.19
2023-03-03T06:41:34.449Z,99782.34
2023-03-03T06:42:36.769Z,99776.22
2023-03-03T06:43:39.059Z,99775.34
2023-03-03T06:44:41.391Z,99777.16
2023-03-03T06:45:45.521Z,99775.50
2023-03-03T06:46:47.745Z,99780.69
2023-03-03T06:47:49.932Z,99776.41
2023-03-03T06:48:52.226Z,99776.38
2023-03-03T06:49:54.452Z,99781.59
2023-03-03T06:50:57.370Z,99780.75
2023-03-03T06:52:02.260Z,99784.25
2023-03-03T06:53:14.593Z,99789.38
2023-03-03T06:54:19.291Z,99788.50
2023-03-03T06:55:24.276Z,99794.53
2023-03-03T06:56:27.427Z,99794.53
2023-03-03T06:57:33.719Z,99796.47
2023-03-03T06:58:36.148Z,99795.66
2023-03-03T06:59:38.566Z,99788.88
2023-03-03T07:00:46.165Z,99794.94
2023-03-03T07:01:50.162Z,99785.47
2023-03-03T07:03:02.158Z,99777.88
2023-03-03T07:04:30.672Z,99782.06
